createdAt,value
2017-12-12T00:01:57.258Z,99.90
2017-12-12T00:04:25.670Z,99.90
2017-12-12T00:06:53.336Z,99.90
2017-12-12T00:09:21.048Z,99.90
2017-12-12T00:11:49.463Z,99.90
2017-12-12T00:14:17.186Z,99.90
2017-12-12T00:16:45.577Z,99.90
2017-12-12T00:19:13.982Z,99.90
2017-12-12T00:21:41.631Z,99.90
2017-12-12T00:24:09.274Z,99.90
2017-12-12T00:26:37.678Z,99.90
2017-12-12T00:29:05.293Z,99.90
2017-12-12T00:31:33.723Z,99.90
2017-12-12T00:34:01.360Z,99.90
2017-12-12T00:36:28.971Z,99.90
2017-12-12T00:38:56.659Z,99.90
2017-12-12T00:41:25.031Z,99.90
2017-12-12T00:43:53.498Z,99.90
2017-12-12T00:46:21.162Z,99.90
2017-12-12T00:48:48.776Z,99.90
2017-12-12T00:51:16.431Z,99.90
2017-12-12T00:53:44.065Z,99.90
2017-12-12T00:56:11.713Z,99.90
2017-12-12T00:58:39.338Z,99.90
2017-12-12T01:01:07.029Z,99.90
2017-12-12T01:03:35.406Z,99.90
2017-12-12T01:06:03.033Z,99.90
2017-12-12T01:08:30.693Z,99.90
2017-12-12T01:10:58.299Z,99.90
2017-12-12T01:13:26.704Z,99.90
2017-12-12T01:15:54.332Z,99.90
2017-12-12T01:18:22.742Z,99.90
2017-12-12T01:20:50.384Z,99.90
2017-12-12T01:23:18.027Z,99.90
2017-12-12T01:25:46.423Z,99.90
2017-12-12T01:28:14.152Z,99.90
2017-12-12T01:30:41.778Z,99.90
2017-12-12T01:33:09.404Z,99.90
2017-12-12T01:35:37.055Z,99.90
2017-12-12T01:38:04.773Z,99.90
2017-12-12T01:40:32.511Z,99.90
2017-12-12T01:43:00.210Z,99.90
2017-12-12T01:45:27.899Z,99.90
2017-12-12T01:47:56.352Z,99.90
2017-12-12T01:50:24.019Z,99.90
2017-12-12T01:52:52.505Z,99.90
2017-12-12T01:55:20.962Z,99.90
2017-12-12T01:57:48.699Z,99.90
2017-12-12T02:00:16.409Z,99.90
2017-12-12T02:02:44.904Z,99.90
2017-12-12T02:05:12.587Z,99.90
2017-12-12T02:07:40.236Z,99.90
2017-12-12T02:10:07.942Z,99.90
2017-12-12T02:12:35.611Z,99.90
2017-12-12T02:15:03.327Z,99.90
2017-12-12T02:17:31.027Z,99.90
2017-12-12T02:19:58.716Z,99.90
2017-12-12T02:22:27.209Z,99.90
2017-12-12T02:24:54.888Z,99.90
2017-12-12T02:27:22.629Z,99.90
2017-12-12T02:29:51.087Z,99.90
2017-12-12T02:32:19.589Z,99.90
2017-12-12T02:34:47.274Z,99.90
2017-12-12T02:37:15.055Z,99.90
2017-12-12T02:39:42.739Z,99.90
2017-12-12T02:42:10.440Z,99.90
2017-12-12T02:44:38.155Z,99.90
2017-12-12T02:47:05.844Z,99.90
2017-12-12T02:49:34.347Z,99.90
2017-12-12T02:52:02.058Z,99.90
2017-12-12T02:54:29.739Z,99.90
2017-12-12T02:56:58.198Z,99.90
2017-12-12T02:59:25.884Z,99.90
2017-12-12T03:01:54.434Z,99.90
2017-12-12T03:04:22.127Z,99.90
2017-12-12T03:06:50.576Z,99.90
2017-12-12T03:09:18.286Z,99.90
2017-12-12T03:11:45.980Z,99.90
2017-12-12T03:14:13.682Z,99.90
2017-12-12T03:16:42.127Z,99.90
2017-12-12T03:19:09.865Z,99.90
2017-12-12T03:21:37.562Z,99.90
2017-12-12T03:24:05.232Z,99.90
2017-12-12T03:26:32.940Z,99.90
2017-12-12T03:29:00.628Z,99.90
2017-12-12T03:31:28.331Z,99.90
2017-12-12T03:33:56.778Z,99.90
2017-12-12T03:36:24.496Z,99.90
2017-12-12T03:38:52.171Z,99.90
2017-12-12T03:41:19.895Z,99.90
2017-12-12T03:43:48.371Z,99.90
2017-12-12T03:46:16.812Z,99.90
2017-12-12T03:48:44.568Z,99.90
2017-12-12T03:51:12.260Z,99.90
2017-12-12T03:53:39.962Z,99.90
2017-12-12T03:56:07.624Z,99.90
2017-12-12T03:58:35.339Z,99.90
2017-12-12T04:01:03.032Z,99.90
2017-12-12T04:03:31.494Z,99.90
2017-12-12T04:05:59.945Z,99.90
2017-12-12T04:08:27.594Z,99.90
2017-12-12T04:10:55.254Z,99.90
2017-12-12T04:13:22.934Z,99.90
2017-12-12T04:15:50.638Z,99.90
2017-12-12T04:18:18.318Z,99.90
2017-12-12T04:20:46.020Z,99.90
2017-12-12T04:23:13.686Z,99.90
2017-12-12T04:25:41.413Z,99.90
2017-12-12T04:28:09.095Z,99.90
2017-12-12T04:30:36.834Z,99.90
2017-12-12T04:33:04.509Z,99.90
2017-12-12T04:35:32.201Z,99.90
2017-12-12T04:38:00.670Z,99.90
2017-12-12T04:40:28.358Z,99.90
2017-12-12T04:42:56.854Z,99.90
2017-12-12T04:45:24.546Z,99.90
2017-12-12T04:47:52.195Z,99.90
2017-12-12T04:50:19.904Z,99.90
2017-12-12T04:52:47.583Z,99.90
2017-12-12T04:55:16.074Z,99.90
2017-12-12T04:57:43.736Z,99.90
2017-12-12T05:00:11.423Z,99.90
2017-12-12T05:02:39.181Z,99.90
2017-12-12T05:05:06.871Z,99.90
2017-12-12T05:07:34.698Z,99.90
2017-12-12T05:10:02.339Z,99.90
2017-12-12T05:12:30.035Z,99.90
2017-12-12T05:14:57.749Z,99.90
2017-12-12T05:17:26.225Z,99.90
2017-12-12T05:19:54.728Z,99.90
2017-12-12T05:22:22.382Z,99.90
2017-12-12T05:24:50.079Z,99.90
2017-12-12T05:27:17.816Z,99.90
2017-12-12T05:29:45.479Z,99.90
2017-12-12T05:32:13.189Z,99.90
2017-12-12T05:34:41.147Z,99.90
2017-12-12T05:37:08.954Z,99.90
2017-12-12T05:39:36.652Z,99.90
2017-12-12T05:42:04.353Z,99.90
2017-12-12T05:44:32.834Z,99.90
2017-12-12T05:47:01.268Z,99.90
2017-12-12T05:49:29.003Z,99.90
2017-12-12T05:51:56.655Z,99.90
2017-12-12T05:54:24.330Z,99.90
2017-12-12T05:56:52.031Z,99.90
2017-12-12T05:59:19.703Z,99.90
2017-12-12T06:01:47.403Z,99.90
2017-12-12T06:04:15.105Z,99.90
2017-12-12T06:06:42.810Z,99.90
2017-12-12T06:09:11.233Z,99.90
2017-12-12T06:11:38.951Z,99.90
2017-12-12T06:14:07.390Z,99.90
2017-12-12T06:16:35.326Z,99.90
2017-12-12T06:19:03.004Z,99.90
2017-12-12T06:21:30.692Z,99.90
2017-12-12T06:23:58.418Z,99.90
2017-12-12T06:26:26.118Z,99.90
2017-12-12T06:28:53.930Z,99.90
2017-12-12T06:31:21.667Z,99.90
2017-12-12T06:33:50.136Z,99.90
2017-12-12T06:36:18.567Z,99.90
2017-12-12T06:38:46.271Z,99.90
2017-12-12T06:41:14.720Z,99.90
2017-12-12T06:43:43.330Z,99.90
2017-12-12T06:46:11.033Z,99.90
2017-12-12T06:48:39.063Z,99.90
2017-12-12T06:51:07.512Z,99.90
2017-12-12T06:53:35.199Z,99.90
2017-12-12T06:56:02.891Z,99.90
2017-12-12T06:58:30.599Z,99.90
2017-12-12T07:00:58.347Z,99.90
2017-12-12T07:03:26.128Z,99.90
2017-12-12T07:05:53.966Z,99.90
2017-12-12T07:08:21.666Z,99.90
2017-12-12T07:10:49.360Z,99.90
2017-12-12T07:13:17.067Z,99.90
2017-12-12T07:15:44.737Z,99.90
2017-12-12T07:18:12.491Z,99.90
2017-12-12T07:20:40.196Z,99.90
2017-12-12T07:23:07.975Z,99.90
2017-12-12T07:25:35.730Z,99.90
2017-12-12T07:28:03.451Z,99.90
2017-12-12T07:30:31.434Z,99.90
2017-12-12T07:32:59.887Z,99.90
2017-12-12T07:35:27.612Z,99.90
2017-12-12T07:37:55.304Z,99.90
2017-12-12T07:40:23.078Z,99.90
2017-12-12T07:42:50.744Z,99.90
2017-12-12T07:45:18.404Z,99.90
2017-12-12T07:47:46.192Z,99.90
2017-12-12T07:50:14.620Z,99.90
2017-12-12T07:52:42.471Z,99.90
2017-12-12T07:55:10.153Z,99.90
2017-12-12T07:57:37.851Z,99.90
2017-12-12T08:00:06.428Z,99.90
2017-12-12T08:02:34.943Z,99.90
2017-12-12T08:05:02.614Z,99.90
2017-12-12T08:07:30.375Z,99.90
2017-12-12T08:09:58.045Z,99.90
2017-12-12T08:12:25.687Z,99.90
2017-12-12T08:14:53.392Z,99.90
2017-12-12T08:17:21.165Z,99.90
2017-12-12T08:19:49.583Z,99.90
2017-12-12T08:22:17.280Z,99.90
2017-12-12T08:24:44.915Z,99.90
2017-12-12T08:27:12.576Z,99.90
2017-12-12T08:29:40.255Z,99.90
2017-12-12T08:32:07.884Z,99.90
2017-12-12T08:34:35.643Z,99.90
2017-12-12T08:37:03.272Z,99.90
2017-12-12T08:39:31.921Z,99.90
2017-12-12T08:41:59.620Z,99.90
2017-12-12T08:44:27.386Z,99.90
2017-12-12T08:46:55.124Z,99.90
2017-12-12T08:49:22.827Z,99.90
2017-12-12T08:51:50.552Z,99.90
2017-12-12T08:54:18.195Z,99.90
2017-12-12T08:56:45.838Z,99.90
2017-12-12T08:59:13.484Z,99.90
2017-12-12T09:01:41.115Z,99.90
2017-12-12T09:04:09.573Z,99.90
2017-12-12T09:06:37.208Z,99.90
2017-12-12T09:09:04.967Z,99.90
2017-12-12T09:11:32.574Z,99.90
2017-12-12T09:14:00.981Z,99.90
2017-12-12T09:16:28.643Z,99.90
2017-12-12T09:18:56.321Z,99.90
2017-12-12T09:21:24.043Z,99.90
2017-12-12T09:23:52.507Z,99.90
2017-12-12T09:26:20.966Z,99.90
2017-12-12T09:28:48.607Z,99.90
2017-12-12T09:31:16.231Z,99.90
2017-12-12T09:33:43.878Z,99.90
2017-12-12T09:36:12.258Z,99.90
2017-12-12T09:38:40.704Z,99.90
2017-12-12T09:41:08.506Z,99.90
2017-12-12T09:43:36.203Z,99.90
2017-12-12T09:46:03.947Z,99.90
2017-12-12T09:48:31.575Z,99.90
2017-12-12T09:51:02.085Z,99.90
2017-12-12T09:53:30.579Z,99.90
2017-12-12T09:55:58.700Z,99.90
2017-12-12T09:58:27.017Z,99.90
2017-12-12T10:00:55.418Z,99.90
2017-12-12T10:03:23.107Z,99.90
2017-12-12T10:05:50.773Z,99.90
2017-12-12T10:08:18.614Z,99.90
2017-12-12T10:10:46.655Z,99.90
2017-12-12T10:13:15.075Z,98.90
2017-12-12T10:15:42.770Z,98.90
2017-12-12T10:18:10.415Z,98.60
2017-12-12T10:20:38.132Z,98.60
2017-12-12T10:23:05.792Z,99.10
2017-12-12T10:25:33.416Z,99.90
2017-12-12T10:28:01.108Z,99.40
2017-12-12T10:30:28.785Z,98.70
2017-12-12T10:32:56.497Z,98.60
2017-12-12T10:35:24.116Z,99.50
2017-12-12T10:37:52.575Z,99.10
2017-12-12T10:40:20.313Z,99.10
2017-12-12T10:42:48.864Z,99.40
2017-12-12T10:45:16.556Z,99.40
2017-12-12T10:47:44.242Z,99.70
2017-12-12T10:50:11.959Z,98.90
2017-12-12T10:52:39.607Z,99.50
2017-12-12T10:55:07.323Z,98.60
2017-12-12T10:57:35.039Z,99.60
2017-12-12T11:00:02.727Z,99.90
2017-12-12T11:02:31.115Z,97.40
2017-12-12T11:04:58.821Z,97.40
2017-12-12T11:07:26.444Z,97.20
2017-12-12T11:09:54.305Z,96.40
2017-12-12T11:12:21.936Z,96.70
2017-12-12T11:14:49.590Z,96.40
2017-12-12T11:17:17.297Z,95.70
2017-12-12T11:19:44.941Z,96.50
2017-12-12T11:22:12.623Z,97.80
2017-12-12T11:24:40.246Z,98.70
2017-12-12T11:27:08.735Z,97.70
2017-12-12T11:29:37.231Z,99.00
2017-12-12T11:32:05.747Z,98.80
2017-12-12T11:34:33.416Z,98.80
2017-12-12T11:37:01.076Z,99.10
2017-12-12T11:39:28.725Z,99.00
2017-12-12T11:41:56.343Z,99.80
2017-12-12T11:44:23.976Z,99.90
2017-12-12T11:46:51.605Z,99.90
2017-12-12T11:49:19.946Z,99.90
2017-12-12T11:51:47.590Z,99.90
2017-12-12T11:54:15.280Z,99.90
2017-12-12T11:56:42.997Z,99.90
2017-12-12T11:59:11.574Z,99.10
2017-12-12T12:01:39.325Z,99.10
2017-12-12T12:04:07.074Z,99.80
2017-12-12T12:06:34.957Z,98.90
2017-12-12T12:09:02.625Z,98.80
2017-12-12T12:11:30.362Z,98.80
2017-12-12T12:13:58.193Z,99.30
2017-12-12T12:16:25.980Z,98.00
2017-12-12T12:18:53.583Z,97.80
2017-12-12T12:21:21.375Z,97.50
2017-12-12T12:23:49.028Z,96.90
2017-12-12T12:26:16.767Z,96.90
2017-12-12T12:28:45.204Z,98.20
2017-12-12T12:31:12.907Z,98.20
2017-12-12T12:33:41.421Z,97.90
2017-12-12T12:36:09.244Z,97.90
2017-12-12T12:38:37.770Z,98.90
2017-12-12T12:41:05.492Z,98.90
2017-12-12T12:43:34.083Z,98.90
2017-12-12T12:46:02.675Z,99.40
2017-12-12T12:48:31.131Z,99.20
2017-12-12T12:50:59.719Z,99.60
2017-12-12T12:53:28.224Z,99.90
2017-12-12T12:55:56.020Z,99.90
2017-12-12T12:58:23.793Z,99.90
2017-12-12T13:00:51.463Z,99.90
2017-12-12T13:03:19.110Z,99.90
2017-12-12T13:05:46.768Z,99.90
2017-12-12T13:08:14.480Z,99.90
2017-12-12T13:10:42.875Z,99.90
2017-12-12T13:13:10.572Z,99.90
2017-12-12T13:15:38.251Z,99.90
2017-12-12T13:18:05.915Z,99.90
2017-12-12T13:20:34.395Z,99.90
2017-12-12T13:23:02.039Z,99.90
2017-12-12T13:25:29.753Z,99.90
2017-12-12T13:27:57.442Z,99.90
2017-12-12T13:30:25.178Z,99.90
2017-12-12T13:32:52.841Z,99.90
2017-12-12T13:35:20.549Z,99.90
2017-12-12T13:37:48.265Z,99.90
2017-12-12T13:40:15.969Z,99.90
2017-12-12T13:42:43.731Z,99.90
2017-12-12T13:45:11.366Z,99.90
2017-12-12T13:47:39.024Z,99.90
2017-12-12T13:50:06.694Z,99.90
2017-12-12T13:52:34.323Z,99.90
2017-12-12T13:55:01.970Z,99.90
2017-12-12T13:57:29.771Z,99.90
2017-12-12T13:59:57.411Z,99.90
2017-12-12T14:02:25.063Z,99.90
2017-12-12T14:04:52.706Z,99.90
2017-12-12T14:07:20.331Z,99.90
2017-12-12T14:09:47.978Z,99.90
2017-12-12T14:12:15.600Z,99.90
2017-12-12T14:14:43.392Z,99.90
2017-12-12T14:17:11.068Z,99.90
2017-12-12T14:19:38.764Z,99.90
2017-12-12T14:22:07.184Z,99.90
2017-12-12T14:24:34.819Z,99.90
2017-12-12T14:27:02.568Z,99.90
2017-12-12T14:29:30.953Z,99.90
2017-12-12T14:31:58.600Z,99.90
2017-12-12T14:34:27.225Z,99.90
2017-12-12T14:36:54.897Z,99.90
2017-12-12T14:39:22.624Z,99.90
2017-12-12T14:41:50.247Z,99.90
2017-12-12T14:44:18.111Z,99.90
2017-12-12T14:46:45.737Z,99.90
2017-12-12T14:49:13.455Z,99.90
2017-12-12T14:51:41.834Z,99.90
2017-12-12T14:54:10.243Z,99.90
2017-12-12T14:56:37.863Z,99.90
2017-12-12T14:59:06.269Z,99.90
2017-12-12T15:01:33.874Z,99.90
2017-12-12T15:04:01.558Z,99.90
2017-12-12T15:06:29.933Z,99.90
2017-12-12T15:08:57.578Z,99.90
2017-12-12T15:11:25.216Z,99.90
2017-12-12T15:13:52.868Z,99.90
2017-12-12T15:16:20.480Z,99.90
2017-12-12T15:18:48.897Z,99.90
2017-12-12T15:21:16.509Z,99.90
2017-12-12T15:23:44.169Z,99.90
2017-12-12T15:26:12.576Z,99.90
2017-12-12T15:28:40.239Z,99.90
2017-12-12T15:31:07.875Z,99.90
2017-12-12T15:33:35.547Z,99.90
2017-12-12T15:36:03.255Z,99.90
2017-12-12T15:38:30.919Z,99.90
2017-12-12T15:40:58.616Z,99.90
2017-12-12T15:43:27.058Z,99.90
2017-12-12T15:45:54.709Z,99.90
2017-12-12T15:48:22.413Z,99.90
2017-12-12T15:50:50.850Z,99.90
2017-12-12T15:53:19.044Z,99.90
2017-12-12T15:55:46.755Z,99.90
2017-12-12T15:58:14.401Z,99.90
2017-12-12T16:00:42.143Z,99.90
2017-12-12T16:03:10.532Z,99.90
2017-12-12T16:05:38.191Z,99.90
2017-12-12T16:08:06.559Z,99.90
2017-12-12T16:10:34.987Z,99.90
2017-12-12T16:13:02.643Z,99.90
2017-12-12T16:15:30.288Z,99.90
2017-12-12T16:17:58.594Z,99.90
2017-12-12T16:20:26.211Z,99.90
2017-12-12T16:22:53.879Z,99.90
2017-12-12T16:25:21.640Z,99.90
2017-12-12T16:27:49.322Z,99.90
2017-12-12T16:30:16.950Z,99.90
2017-12-12T16:32:44.607Z,99.90
2017-12-12T16:35:12.541Z,99.90
2017-12-12T16:37:40.191Z,99.90
2017-12-12T16:40:07.903Z,99.90
2017-12-12T16:42:35.587Z,99.90
2017-12-12T16:45:03.289Z,99.90
2017-12-12T16:47:30.945Z,99.90
2017-12-12T16:49:58.593Z,99.90
2017-12-12T16:52:27.159Z,99.90
2017-12-12T16:54:54.759Z,99.90
2017-12-12T16:57:22.437Z,99.90
2017-12-12T16:59:50.063Z,99.90
2017-12-12T17:02:18.955Z,99.90
2017-12-12T17:04:46.589Z,99.90
2017-12-12T17:07:14.255Z,99.90
2017-12-12T17:09:41.867Z,99.90
2017-12-12T17:12:09.553Z,99.90
2017-12-12T17:14:37.213Z,99.90
2017-12-12T17:17:04.830Z,99.90
2017-12-12T17:19:33.262Z,99.90
2017-12-12T17:22:00.915Z,99.90
2017-12-12T17:24:28.593Z,99.90
2017-12-12T17:26:56.235Z,99.90
2017-12-12T17:29:23.876Z,99.90
2017-12-12T17:31:51.515Z,99.90
2017-12-12T17:34:19.950Z,99.90
2017-12-12T17:36:47.603Z,99.90
2017-12-12T17:39:15.232Z,99.90
2017-12-12T17:41:44.683Z,99.90
2017-12-12T17:44:12.336Z,99.90
2017-12-12T17:46:40.056Z,99.90
2017-12-12T17:49:07.679Z,99.90
2017-12-12T17:51:35.328Z,99.90
2017-12-12T17:54:02.961Z,99.90
2017-12-12T17:56:30.626Z,99.90
2017-12-12T17:58:58.260Z,99.90
2017-12-12T18:01:25.935Z,99.90
2017-12-12T18:03:53.675Z,99.90
2017-12-12T18:06:21.370Z,99.90
2017-12-12T18:08:49.009Z,99.90
2017-12-12T18:11:16.683Z,99.90
2017-12-12T18:13:44.326Z,99.90
2017-12-12T18:16:11.983Z,99.90
2017-12-12T18:18:39.652Z,99.90
2017-12-12T18:21:07.255Z,99.90
2017-12-12T18:23:35.704Z,99.90
2017-12-12T18:26:03.330Z,99.90
2017-12-12T18:28:30.996Z,99.90
2017-12-12T18:30:58.648Z,99.90
2017-12-12T18:33:26.311Z,99.90
2017-12-12T18:35:54.036Z,99.90
2017-12-12T18:38:21.770Z,99.90
2017-12-12T18:40:49.609Z,99.90
2017-12-12T18:43:17.274Z,99.90
2017-12-12T18:45:44.967Z,99.90
2017-12-12T18:48:12.646Z,99.90
2017-12-12T18:50:40.312Z,99.90
2017-12-12T18:53:08.868Z,99.90
2017-12-12T18:55:37.335Z,99.90
2017-12-12T18:58:05.062Z,99.90
2017-12-12T19:00:32.879Z,99.90
2017-12-12T19:03:00.763Z,99.90
2017-12-12T19:05:29.935Z,99.90
2017-12-12T19:07:57.770Z,99.90
2017-12-12T19:10:25.407Z,99.90
2017-12-12T19:12:53.152Z,99.90
2017-12-12T19:15:21.543Z,99.90
2017-12-12T19:17:49.475Z,99.90
2017-12-12T19:20:17.159Z,99.90
2017-12-12T19:22:45.595Z,99.90
2017-12-12T19:25:13.319Z,99.90
2017-12-12T19:27:41.026Z,99.90
2017-12-12T19:30:08.827Z,99.90
2017-12-12T19:32:37.264Z,99.90
2017-12-12T19:35:04.987Z,99.90
2017-12-12T19:37:32.771Z,99.90
2017-12-12T19:40:00.587Z,99.90
2017-12-12T19:42:29.024Z,99.90
2017-12-12T19:44:56.776Z,99.90
2017-12-12T19:47:25.022Z,99.90
2017-12-12T19:49:52.715Z,99.90
2017-12-12T19:52:20.506Z,99.90
2017-12-12T19:54:48.248Z,99.90
2017-12-12T19:57:16.156Z,99.90
2017-12-12T19:59:43.998Z,99.90
2017-12-12T20:02:11.895Z,99.90
2017-12-12T20:04:39.843Z,99.90
2017-12-12T20:07:08.420Z,99.90
2017-12-12T20:09:36.199Z,99.90
2017-12-12T20:12:04.080Z,99.90
2017-12-12T20:14:32.023Z,99.90
2017-12-12T20:17:00.542Z,99.90
2017-12-12T20:19:28.298Z,99.90
2017-12-12T20:21:56.243Z,99.90
2017-12-12T20:24:24.794Z,99.90
2017-12-12T20:26:52.576Z,99.90
2017-12-12T20:29:21.050Z,99.90
2017-12-12T20:31:49.434Z,99.90
2017-12-12T20:34:17.881Z,99.90
2017-12-12T20:36:45.526Z,99.90
2017-12-12T20:39:13.241Z,99.90
2017-12-12T20:41:40.938Z,99.90
2017-12-12T20:44:08.703Z,99.90
2017-12-12T20:46:36.428Z,99.90
2017-12-12T20:49:04.956Z,99.90
2017-12-12T20:51:32.723Z,99.90
2017-12-12T20:54:00.505Z,99.90
2017-12-12T20:56:29.122Z,99.90
2017-12-12T20:58:56.860Z,99.90
2017-12-12T21:01:24.611Z,99.90
2017-12-12T21:03:52.515Z,99.90
2017-12-12T21:06:20.291Z,99.90
2017-12-12T21:08:48.177Z,99.90
2017-12-12T21:11:16.113Z,99.90
2017-12-12T21:13:43.919Z,99.90
2017-12-12T21:16:11.740Z,99.90
2017-12-12T21:18:39.609Z,99.90
2017-12-12T21:21:07.402Z,99.90
2017-12-12T21:23:35.482Z,99.90
2017-12-12T21:26:03.375Z,99.90
2017-12-12T21:28:31.145Z,99.90
2017-12-12T21:30:58.983Z,99.90
2017-12-12T21:33:27.423Z,99.90
2017-12-12T21:35:55.409Z,99.90
2017-12-12T21:38:23.023Z,99.90
2017-12-12T21:40:51.615Z,99.90
2017-12-12T21:43:19.427Z,99.90
2017-12-12T21:45:47.099Z,99.90
2017-12-12T21:48:14.932Z,99.90
2017-12-12T21:50:42.718Z,99.90
2017-12-12T21:53:10.591Z,99.90
2017-12-12T21:55:38.432Z,99.90
2017-12-12T21:58:06.320Z,99.90
2017-12-12T22:00:34.257Z,99.90
2017-12-12T22:03:02.167Z,99.90
2017-12-12T22:05:30.751Z,99.90
2017-12-12T22:07:58.731Z,99.90
2017-12-12T22:10:26.411Z,99.90
2017-12-12T22:12:54.247Z,99.90
2017-12-12T22:15:23.741Z,99.90
2017-12-12T22:17:51.370Z,99.90
2017-12-12T22:20:19.870Z,99.90
2017-12-12T22:22:48.812Z,99.90
2017-12-12T22:25:16.629Z,99.90
2017-12-12T22:27:45.409Z,99.90
2017-12-12T22:30:13.272Z,99.90
2017-12-12T22:32:41.271Z,99.90
2017-12-12T22:35:09.183Z,99.90
2017-12-12T22:37:37.063Z,99.90
2017-12-12T22:40:04.696Z,99.90
2017-12-12T22:42:32.359Z,99.90
2017-12-12T22:45:00.012Z,99.90
2017-12-12T22:47:27.646Z,99.90
2017-12-12T22:49:55.267Z,99.90
2017-12-12T22:52:22.930Z,99.90
2017-12-12T22:54:50.598Z,99.90
2017-12-12T22:57:18.991Z,99.90
2017-12-12T22:59:46.649Z,99.90
2017-12-12T23:02:15.096Z,99.90
2017-12-12T23:04:42.745Z,99.90
2017-12-12T23:07:10.370Z,99.90
2017-12-12T23:09:38.032Z,99.90
2017-12-12T23:12:05.710Z,99.90
2017-12-12T23:14:33.340Z,99.90
2017-12-12T23:17:01.124Z,99.90
2017-12-12T23:19:28.756Z,99.90
2017-12-12T23:21:56.441Z,99.90
2017-12-12T23:24:24.118Z,99.90
2017-12-12T23:26:51.791Z,99.90
2017-12-12T23:29:19.504Z,99.90
2017-12-12T23:31:47.216Z,99.90
2017-12-12T23:34:14.976Z,99.90
2017-12-12T23:36:42.684Z,99.90
2017-12-12T23:39:10.366Z,99.90
2017-12-12T23:41:38.005Z,99.90
2017-12-12T23:44:05.633Z,99.90
2017-12-12T23:46:33.297Z,99.90
2017-12-12T23:49:01.696Z,99.90
2017-12-12T23:51:30.103Z,99.90
2017-12-12T23:53:57.747Z,99.90
2017-12-12T23:56:25.465Z,99.90
2017-12-12T23:58:53.095Z,99.90
